Time;durP1;ratioP1;P1;durP2;ratioP2;P2;SDS_P1;SDS_P2;PMS_P1;PMS_P2;Temp;Humidity;BMP_temperature;BMP_pressure;BME280_temperature;BME280_humidity;BME280_pressure;Samples;Min_cycle;Max_cycle;Signal;HPM_P1;HPM_P2
2021/05/28 00:02:15;;;;;;;0.32;0.32;;;15.30;95.00;;;;;;6216876;23;20338;-76
2021/05/28 00:04:42;;;;;;;0.28;0.28;;;15.40;95.50;;;;;;6244052;22;20075;-77
2021/05/28 00:07:09;;;;;;;0.10;0.10;;;15.40;95.00;;;;;;6217037;23;20035;-76
2021/05/28 00:09:35;;;;;;;0.20;0.20;;;15.40;94.50;;;;;;6243282;22;20000;-76
2021/05/28 00:12:01;;;;;;;4.70;0.20;;;15.40;95.00;;;;;;6243393;22;20086;-76
2021/05/28 00:14:27;;;;;;;0.17;0.17;;;15.40;94.80;;;;;;6243432;22;20003;-76
2021/05/28 00:16:54;;;;;;;1.02;0.30;;;15.40;94.90;;;;;;6243516;22;19999;-76
2021/05/28 00:19:20;;;;;;;;;;;15.30;95.40;;;;;;6217337;23;19996;-76
2021/05/28 00:21:46;;;;;;;1.13;0.47;;;15.30;94.40;;;;;;6243719;23;19899;-76
2021/05/28 00:24:12;;;;;;;0.50;0.20;;;15.30;93.40;;;;;;6243886;23;20027;-76
2021/05/28 00:26:37;;;;;;;0.10;0.10;;;15.40;93.50;;;;;;6243665;22;19996;-77
2021/05/28 00:29:04;;;;;;;0.28;0.10;;;15.40;93.40;;;;;;6216578;23;20043;-77
2021/05/28 00:31:30;;;;;;;0.20;0.20;;;15.40;93.70;;;;;;6216825;23;20014;-77
2021/05/28 00:33:55;;;;;;;0.20;0.20;;;15.30;93.40;;;;;;6243395;23;20000;-77
2021/05/28 00:36:21;;;;;;;0.32;0.30;;;15.30;93.00;;;;;;6243897;22;20023;-77
2021/05/28 00:38:47;;;;;;;0.25;0.22;;;15.20;93.40;;;;;;6243390;22;20333;-77
2021/05/28 00:41:14;;;;;;;0.32;0.22;;;15.20;93.10;;;;;;6243714;22;20010;-77
2021/05/28 00:43:40;;;;;;;0.10;0.10;;;15.20;92.80;;;;;;6243116;22;20492;-77
2021/05/28 00:46:05;;;;;;;0.10;0.10;;;15.20;92.30;;;;;;6243332;22;20000;-76
2021/05/28 00:48:31;;;;;;;0.38;0.20;;;15.20;92.80;;;;;;6243125;22;20400;-77
2021/05/28 00:50:57;;;;;;;0.52;0.30;;;15.30;92.70;;;;;;6216594;23;20343;-76
2021/05/28 00:53:24;;;;;;;0.15;0.15;;;15.30;92.70;;;;;;6242808;22;20324;-77
2021/05/28 00:55:50;;;;;;;0.20;0.20;;;15.30;93.20;;;;;;6243824;22;20083;-77
2021/05/28 00:58:17;;;;;;;0.10;0.10;;;15.30;93.20;;;;;;6242984;23;20026;-76
2021/05/28 01:00:44;;;;;;;0.28;0.25;;;15.30;92.80;;;;;;6243333;23;19996;-77
2021/05/28 01:03:10;;;;;;;0.10;0.10;;;15.20;92.40;;;;;;6243191;22;20415;-76
2021/05/28 01:05:36;;;;;;;6.93;0.30;;;15.20;92.90;;;;;;6243611;23;20007;-77
2021/05/28 01:08:02;;;;;;;0.20;0.20;;;15.20;93.10;;;;;;6243031;23;19997;-77
2021/05/28 01:10:28;;;;;;;3.83;0.20;;;15.20;92.10;;;;;;6243279;23;20012;-77
2021/05/28 01:13:04;;;;;;;0.10;0.10;;;15.20;91.60;;;;;;6243113;23;20012;-77
2021/05/28 01:15:30;;;;;;;0.30;0.30;;;15.20;91.70;;;;;;6243328;23;19996;-77
2021/05/28 01:17:56;;;;;;;0.20;0.20;;;15.20;92.30;;;;;;6243018;22;20058;-76
2021/05/28 01:20:21;;;;;;;0.20;0.20;;;15.10;91.80;;;;;;6243613;22;20367;-76
2021/05/28 01:22:48;;;;;;;0.17;0.17;;;15.10;91.80;;;;;;6242949;23;20022;-76
2021/05/28 01:25:14;;;;;;;0.10;0.10;;;15.10;91.60;;;;;;6243595;22;20270;-77
2021/05/28 01:27:40;;;;;;;0.33;0.33;;;15.10;91.20;;;;;;6242990;23;20027;-77
2021/05/28 01:30:06;;;;;;;0.10;0.10;;;15.10;90.80;;;;;;6243064;22;20732;-77
2021/05/28 01:32:32;;;;;;;0.25;0.25;;;15.10;90.60;;;;;;6242982;22;20452;-77
2021/05/28 01:34:58;;;;;;;0.10;0.10;;;15.10;90.40;;;;;;6216347;23;19996;-76
2021/05/28 01:37:24;;;;;;;0.20;0.20;;;15.20;90.00;;;;;;6216088;23;20005;-77
2021/05/28 01:39:52;;;;;;;0.10;0.10;;;15.20;89.80;;;;;;6243372;23;20126;-76
2021/05/28 01:42:18;;;;;;;0.20;0.20;;;15.10;90.50;;;;;;6243079;23;20083;-76
2021/05/28 01:44:45;;;;;;;0.20;0.20;;;15.00;90.90;;;;;;6242973;23;20008;-76
2021/05/28 01:47:11;;;;;;;0.10;0.10;;;14.90;90.90;;;;;;6243037;23;20012;-76
2021/05/28 01:49:41;;;;;;;0.67;0.30;;;14.90;91.20;;;;;;6243406;22;20000;-76
2021/05/28 01:52:08;;;;;;;0.10;0.10;;;14.90;91.40;;;;;;6242494;22;20012;-76
2021/05/28 01:54:38;;;;;;;0.10;0.10;;;14.80;91.40;;;;;;6243291;22;20378;-76
2021/05/28 01:57:05;;;;;;;0.20;0.20;;;14.80;91.80;;;;;;6243081;22;19997;-76
2021/05/28 01:59:31;;;;;;;0.20;0.20;;;14.70;91.50;;;;;;6217955;23;20015;-74
2021/05/28 02:01:57;;;;;;;0.13;0.10;;;14.70;91.00;;;;;;6245090;22;20000;-77
2021/05/28 02:04:23;;;;;;;0.10;0.10;;;14.70;91.00;;;;;;6218489;23;19996;-76
2021/05/28 02:06:50;;;;;;;0.10;0.10;;;14.70;91.00;;;;;;6244961;22;20042;-76
2021/05/28 02:09:15;;;;;;;0.13;0.13;;;14.70;91.00;;;;;;6245342;23;19996;-77
2021/05/28 02:11:41;;;;;;;0.30;0.30;;;14.70;90.60;;;;;;6244770;22;20018;-76
2021/05/28 02:14:07;;;;;;;0.10;0.10;;;14.70;90.70;;;;;;6245047;22;20494;-77
2021/05/28 02:16:33;;;;;;;0.10;0.10;;;14.70;90.20;;;;;;6245047;22;20010;-76
2021/05/28 02:18:59;;;;;;;0.30;0.30;;;14.70;89.80;;;;;;6244602;22;20062;-76
2021/05/28 02:21:25;;;;;;;0.10;0.10;;;14.70;90.10;;;;;;6245276;22;20004;-76
2021/05/28 02:23:51;;;;;;;0.10;0.10;;;14.70;89.80;;;;;;6244376;22;20062;-76
2021/05/28 02:26:16;;;;;;;0.52;0.38;;;14.70;88.70;;;;;;6245332;22;20378;-76
2021/05/28 02:28:42;;;;;;;2.08;0.70;;;14.80;88.30;;;;;;6217673;23;20027;-76
2021/05/28 02:31:08;;;;;;;0.20;0.20;;;14.80;88.10;;;;;;6244519;23;20004;-76
2021/05/28 02:33:36;;;;;;;0.10;0.10;;;14.80;87.40;;;;;;6244136;23;20018;-77
2021/05/28 02:36:02;;;;;;;0.38;0.32;;;14.80;87.10;;;;;;6244416;22;20344;-77
2021/05/28 02:38:27;;;;;;;10.43;0.20;;;14.80;87.80;;;;;;6244410;22;20030;-78
2021/05/28 02:40:53;;;;;;;0.10;0.10;;;14.80;86.50;;;;;;6218227;23;20024;-80
2021/05/28 02:43:19;;;;;;;0.10;0.10;;;14.70;88.40;;;;;;6244310;22;20001;-77
2021/05/28 02:45:44;;;;;;;0.10;0.10;;;14.70;89.10;;;;;;6244952;22;20050;-79
2021/05/28 02:48:10;;;;;;;0.10;0.10;;;14.60;88.40;;;;;;6244470;22;20000;-78
2021/05/28 02:50:36;;;;;;;0.20;0.20;;;14.60;88.50;;;;;;6244930;22;20232;-77
2021/05/28 02:53:02;;;;;;;0.10;0.10;;;14.60;88.50;;;;;;6244334;22;20023;-77
2021/05/28 02:55:29;;;;;;;0.10;0.10;;;14.50;88.60;;;;;;6244831;22;20434;-77
2021/05/28 02:57:55;;;;;;;0.10;0.10;;;14.50;89.00;;;;;;6244398;22;20074;-78
2021/05/28 03:00:22;;;;;;;0.10;0.10;;;14.40;87.90;;;;;;6244669;23;21005;-77
2021/05/28 03:02:49;;;;;;;0.10;0.10;;;14.40;87.70;;;;;;6217365;23;20058;-77
2021/05/28 03:05:15;;;;;;;0.10;0.10;;;14.40;86.10;;;;;;6244671;22;20423;-77
2021/05/28 03:07:41;;;;;;;0.10;0.10;;;14.40;86.70;;;;;;6244427;23;20026;-78
2021/05/28 03:10:07;;;;;;;0.20;0.20;;;14.50;85.20;;;;;;6244557;22;20063;-75
2021/05/28 03:12:33;;;;;;;0.38;0.32;;;14.60;83.50;;;;;;6217213;23;20356;-75
2021/05/28 03:14:59;;;;;;;0.17;0.17;;;14.60;83.00;;;;;;6244555;22;20435;-75
2021/05/28 03:17:25;;;;;;;1.38;0.43;;;14.70;83.70;;;;;;6243957;22;20008;-78
2021/05/28 03:19:51;;;;;;;0.20;0.20;;;14.70;83.10;;;;;;6217861;22;20001;-77
2021/05/28 03:25:08;;;;;;;0.10;0.10;;;14.70;82.70;;;;;;6247449;23;20525;-78
2021/05/28 03:27:34;;;;;;;0.22;0.13;;;14.70;82.60;;;;;;6244097;22;20012;-78
2021/05/28 03:30:00;;;;;;;0.10;0.10;;;14.60;82.70;;;;;;6217443;23;20087;-77
2021/05/28 03:32:26;;;;;;;1.55;0.57;;;14.70;82.70;;;;;;6244085;23;20016;-77
2021/05/28 03:34:53;;;;;;;0.13;0.13;;;14.60;84.00;;;;;;6244721;23;20000;-78
2021/05/28 03:37:19;;;;;;;0.20;0.20;;;14.50;84.50;;;;;;6216951;23;20385;-78
2021/05/28 03:39:46;;;;;;;0.10;0.10;;;14.60;84.30;;;;;;6244563;22;20056;-78
2021/05/28 03:42:12;;;;;;;0.10;0.10;;;14.50;84.80;;;;;;6243859;22;20007;-77
2021/05/28 03:44:38;;;;;;;0.10;0.10;;;14.50;85.20;;;;;;6244173;22;20007;-78
2021/05/28 03:47:04;;;;;;;0.10;0.10;;;14.50;86.00;;;;;;6243833;22;20007;-77
2021/05/28 03:49:29;;;;;;;0.10;0.10;;;14.40;86.70;;;;;;6244379;23;20004;-78
2021/05/28 03:51:55;;;;;;;0.10;0.10;;;14.40;86.50;;;;;;6243866;22;20028;-78
2021/05/28 03:54:21;;;;;;;0.10;0.10;;;14.40;83.30;;;;;;6244199;22;19999;-77
2021/05/28 03:56:48;;;;;;;1.55;0.45;;;14.40;85.40;;;;;;6244161;22;20000;-77
2021/05/28 03:59:13;;;;;;;0.45;0.30;;;14.60;82.50;;;;;;6243942;22;20062;-77
2021/05/28 04:01:39;;;;;;;0.10;0.10;;;14.70;82.30;;;;;;6243786;23;20079;-76
2021/05/28 04:04:05;;;;;;;0.30;0.30;;;15.00;80.00;;;;;;6244148;22;20025;-78
2021/05/28 04:06:31;;;;;;;0.10;0.10;;;15.10;79.70;;;;;;6244361;22;20572;-78
2021/05/28 04:08:56;;;;;;;0.10;0.10;;;15.00;82.50;;;;;;6243660;23;20047;-77
2021/05/28 04:11:22;;;;;;;0.10;0.10;;;14.90;82.70;;;;;;6244054;23;20004;-78
2021/05/28 04:13:48;;;;;;;0.10;0.10;;;14.90;85.20;;;;;;6243406;22;20008;-78
2021/05/28 04:16:14;;;;;;;3.88;2.15;;;14.80;82.80;;;;;;6244127;22;19996;-77
2021/05/28 04:18:39;;;;;;;0.10;0.10;;;14.80;83.40;;;;;;6216736;23;20004;-78
2021/05/28 04:21:05;;;;;;;0.10;0.10;;;14.80;83.80;;;;;;6243277;22;20001;-77
2021/05/28 04:23:31;;;;;;;0.10;0.10;;;14.80;85.60;;;;;;6243305;22;20008;-78
2021/05/28 04:25:57;;;;;;;0.10;0.10;;;14.80;87.70;;;;;;6244124;22;20027;-77
2021/05/28 04:28:23;;;;;;;0.10;0.10;;;14.80;87.90;;;;;;6243632;22;20004;-77
2021/05/28 04:30:48;;;;;;;0.10;0.10;;;14.80;84.60;;;;;;6216717;22;20485;-78
2021/05/28 04:33:14;;;;;;;0.10;0.10;;;14.80;87.20;;;;;;6216461;22;20008;-78
2021/05/28 04:35:40;;;;;;;0.10;0.10;;;14.80;88.90;;;;;;6243917;22;20023;-77
2021/05/28 04:38:05;;;;;;;0.10;0.10;;;14.80;88.50;;;;;;6243557;22;20004;-77
2021/05/28 04:40:31;;;;;;;0.10;0.10;;;14.80;88.50;;;;;;6243766;22;20312;-78
2021/05/28 04:42:58;;;;;;;0.10;0.10;;;14.80;87.30;;;;;;6243300;22;19996;-78
2021/05/28 04:45:24;;;;;;;0.10;0.10;;;14.80;88.80;;;;;;6243834;22;20004;-78
2021/05/28 04:47:50;;;;;;;0.10;0.10;;;14.80;88.90;;;;;;6243053;22;20027;-78
2021/05/28 04:50:15;;;;;;;0.10;0.10;;;14.80;88.10;;;;;;6243728;23;20335;-78
2021/05/28 04:52:42;;;;;;;0.10;0.10;;;14.90;87.60;;;;;;6242636;23;20078;-78
2021/05/28 04:55:09;;;;;;;0.10;0.10;;;14.90;87.70;;;;;;6243947;22;19997;-78
2021/05/28 04:57:35;;;;;;;;;;;14.90;86.80;;;;;;6243557;22;20004;-77
2021/05/28 05:00:02;;;;;;;0.10;0.10;;;15.00;86.30;;;;;;6243450;23;19961;-77
2021/05/28 05:02:28;;;;;;;0.10;0.10;;;15.00;86.20;;;;;;6243197;23;20000;-77
2021/05/28 05:04:54;;;;;;;0.10;0.10;;;15.10;87.20;;;;;;6243731;23;20010;-78
2021/05/28 05:07:19;;;;;;;0.10;0.10;;;15.10;85.80;;;;;;6243185;23;20007;-78
2021/05/28 05:09:45;;;;;;;0.10;0.10;;;15.20;84.70;;;;;;6243463;23;20004;-77
2021/05/28 05:12:11;;;;;;;0.10;0.10;;;15.20;82.90;;;;;;6243087;22;20431;-77
2021/05/28 05:14:36;;;;;;;0.10;0.10;;;15.20;84.20;;;;;;6243160;22;20001;-77
2021/05/28 05:17:02;;;;;;;0.80;0.30;;;15.30;84.10;;;;;;6243129;22;20013;-78
2021/05/28 05:19:28;;;;;;;0.10;0.10;;;15.30;84.00;;;;;;6243554;22;20024;-78
2021/05/28 05:21:53;;;;;;;0.10;0.10;;;15.30;85.20;;;;;;6243046;22;20008;-78
2021/05/28 05:24:19;;;;;;;0.10;0.10;;;15.40;85.00;;;;;;6243338;22;20004;-77
2021/05/28 05:26:45;;;;;;;0.10;0.10;;;15.40;84.70;;;;;;6243182;23;20054;-78
2021/05/28 05:29:11;;;;;;;0.10;0.10;;;15.40;83.90;;;;;;6216348;23;20087;-78
2021/05/28 05:31:39;;;;;;;0.10;0.10;;;15.50;86.10;;;;;;6216232;23;20015;-77
2021/05/28 05:34:05;;;;;;;0.10;0.10;;;15.50;84.40;;;;;;6243242;22;20419;-77
2021/05/28 05:36:30;;;;;;;0.10;0.10;;;15.60;85.80;;;;;;6216596;23;20206;-77
2021/05/28 05:38:56;;;;;;;0.10;0.10;;;15.60;83.20;;;;;;6241676;23;20497;-77
2021/05/28 05:41:25;;;;;;;0.10;0.10;;;15.60;87.00;;;;;;6242987;23;19996;-77
2021/05/28 05:43:51;;;;;;;0.10;0.10;;;15.70;85.20;;;;;;6242415;22;20075;-77
2021/05/28 05:46:16;;;;;;;0.10;0.10;;;15.70;83.40;;;;;;6243563;22;20024;-76
2021/05/28 05:48:42;;;;;;;0.10;0.10;;;15.80;84.90;;;;;;6242563;22;20366;-77
2021/05/28 05:51:08;;;;;;;0.10;0.10;;;15.90;83.70;;;;;;6243278;22;20050;-76
2021/05/28 05:53:34;;;;;;;0.10;0.10;;;16.00;82.90;;;;;;6215739;23;20020;-78
2021/05/28 05:56:01;;;;;;;0.10;0.10;;;16.00;82.80;;;;;;6216354;22;20358;-77
2021/05/28 05:58:26;;;;;;;0.10;0.10;;;16.00;83.90;;;;;;6215685;23;20086;-78
2021/05/28 06:00:52;;;;;;;0.08;0.08;;;16.10;80.80;;;;;;6243042;22;20075;-78
2021/05/28 06:03:18;;;;;;;0.10;0.10;;;16.10;84.30;;;;;;6242918;23;20024;-78
2021/05/28 06:05:44;;;;;;;0.10;0.10;;;16.20;82.20;;;;;;6243161;22;20000;-78
2021/05/28 06:08:10;;;;;;;0.10;0.10;;;16.40;84.20;;;;;;6242793;23;20516;-79
2021/05/28 06:10:36;;;;;;;0.10;0.10;;;16.40;81.10;;;;;;6243243;23;20012;-78
2021/05/28 06:13:06;;;;;;;0.10;0.10;;;16.40;76.00;;;;;;6242593;23;20008;-77
2021/05/28 06:15:33;;;;;;;0.10;0.10;;;16.50;79.70;;;;;;6243470;22;20001;-77
2021/05/28 06:17:59;;;;;;;0.10;0.10;;;16.50;78.40;;;;;;6242674;22;20004;-79
2021/05/28 06:20:24;;;;;;;0.10;0.10;;;16.50;79.30;;;;;;6242911;22;20054;-79
2021/05/28 06:22:50;;;;;;;0.10;0.10;;;16.60;80.00;;;;;;6242477;23;20343;-80
2021/05/28 06:25:16;;;;;;;0.10;0.10;;;16.60;78.90;;;;;;6243321;22;20007;-79
2021/05/28 06:27:42;;;;;;;0.10;0.10;;;16.70;81.80;;;;;;6215423;23;20008;-78
2021/05/28 06:30:09;;;;;;;0.10;0.10;;;16.80;79.30;;;;;;6215767;23;20308;-75
2021/05/28 06:32:35;;;;;;;0.10;0.10;;;16.80;77.40;;;;;;6242761;22;20042;-80
2021/05/28 06:35:01;;;;;;;0.10;0.10;;;17.00;74.60;;;;;;6243191;22;20443;-80
2021/05/28 06:37:27;;;;;;;0.10;0.10;;;17.10;72.80;;;;;;6242196;23;20004;-75
2021/05/28 06:39:52;;;;;;;0.10;0.10;;;17.20;71.80;;;;;;6243392;22;20012;-78
2021/05/28 06:42:18;;;;;;;0.10;0.10;;;17.40;75.40;;;;;;6243566;23;20004;-79
2021/05/28 06:44:44;;;;;;;0.10;0.10;;;17.50;74.70;;;;;;6243337;22;20415;-78
2021/05/28 06:47:10;;;;;;;0.10;0.10;;;17.60;74.70;;;;;;6244617;22;20508;-79
2021/05/28 06:49:35;;;;;;;0.10;0.10;;;17.60;73.50;;;;;;6245168;22;20006;-78
2021/05/28 06:52:01;;;;;;;0.00;0.00;;;17.70;82.40;;;;;;6244058;22;20047;-78
2021/05/28 06:54:29;;;;;;;0.20;0.20;;;17.70;85.00;;;;;;6244807;23;20076;-78
2021/05/28 06:56:55;;;;;;;3.83;1.30;;;17.60;90.20;;;;;;6217947;23;20036;-77
2021/05/28 06:59:20;;;;;;;0.30;0.30;;;17.50;90.20;;;;;;6244255;22;20004;-78
2021/05/28 07:01:46;;;;;;;3.70;0.95;;;17.40;91.10;;;;;;6217373;23;20004;-81
2021/05/28 07:04:12;;;;;;;0.30;0.30;;;17.40;90.00;;;;;;6217913;22;19988;-79
2021/05/28 07:06:37;;;;;;;0.25;0.25;;;17.30;90.30;;;;;;6244631;23;20002;-79
2021/05/28 07:09:06;;;;;;;0.28;0.28;;;17.30;88.60;;;;;;6218079;23;20029;-81
2021/05/28 07:11:32;;;;;;;0.20;0.20;;;17.30;91.00;;;;;;6244717;22;20087;-81
2021/05/28 07:13:58;;;;;;;0.28;0.20;;;17.30;90.80;;;;;;6244211;22;20375;-78
2021/05/28 07:16:24;;;;;;;0.20;0.20;;;17.30;90.50;;;;;;6245154;22;20000;-79
2021/05/28 07:18:50;;;;;;;0.15;0.15;;;17.20;90.20;;;;;;6244223;23;20608;-79
2021/05/28 07:21:15;;;;;;;0.30;0.30;;;17.10;90.80;;;;;;6244191;22;20007;-79
2021/05/28 07:23:41;;;;;;;0.63;0.38;;;17.10;91.40;;;;;;6244401;23;20004;-78
2021/05/28 07:26:07;;;;;;;0.20;0.20;;;17.20;88.30;;;;;;6244657;23;20431;-78
2021/05/28 07:28:33;;;;;;;0.30;0.30;;;17.20;89.30;;;;;;6243940;22;20004;-78
2021/05/28 07:30:59;;;;;;;4.97;0.32;;;17.10;86.60;;;;;;6244783;23;20071;-79
2021/05/28 07:33:26;;;;;;;0.30;0.30;;;17.20;86.00;;;;;;6216968;22;20058;-78
2021/05/28 07:35:52;;;;;;;0.10;0.10;;;17.30;87.40;;;;;;6244359;22;20008;-78
2021/05/28 07:38:18;;;;;;;3.47;0.65;;;17.20;90.50;;;;;;6244582;22;20004;-78
2021/05/28 07:40:43;;;;;;;0.20;0.20;;;17.30;91.30;;;;;;6244345;23;20004;-79
2021/05/28 07:43:09;;;;;;;0.10;0.10;;;17.40;88.60;;;;;;6244054;22;20004;-79
2021/05/28 07:45:37;;;;;;;0.20;0.20;;;17.40;85.50;;;;;;6244205;22;20427;-80
2021/05/28 07:48:03;;;;;;;0.95;0.45;;;17.40;87.10;;;;;;6244561;22;20079;-79
2021/05/28 07:50:44;;;;;;;0.20;0.20;;;17.30;86.40;;;;;;6244620;23;20423;-80
2021/05/28 07:53:22;;;;;;;0.10;0.10;;;17.30;83.90;;;;;;6243470;22;20473;-79
2021/05/28 07:55:48;;;;;;;0.20;0.20;;;17.40;84.10;;;;;;6244150;22;20424;-79
2021/05/28 07:58:14;;;;;;;0.13;0.13;;;17.50;82.60;;;;;;6244267;22;20430;-80
2021/05/28 08:00:40;;;;;;;0.45;0.45;;;17.70;84.00;;;;;;6243857;22;20031;-79
2021/05/28 08:03:06;;;;;;;0.32;0.32;;;17.80;79.60;;;;;;6213484;22;20030;-79
2021/05/28 08:05:32;;;;;;;2.33;0.43;;;17.80;80.60;;;;;;6240759;22;19996;-79
2021/05/28 08:07:59;;;;;;;0.10;0.10;;;17.80;77.90;;;;;;6240284;22;20011;-80
2021/05/28 08:10:24;;;;;;;0.20;0.20;;;17.90;81.30;;;;;;6240479;22;20439;-80
2021/05/28 08:12:51;;;;;;;0.13;0.13;;;18.10;80.30;;;;;;6240263;23;20012;-79
2021/05/28 08:15:20;;;;;;;3.35;0.32;;;18.20;79.30;;;;;;6240310;23;20486;-79
2021/05/28 08:17:47;;;;;;;0.43;0.43;;;18.30;79.20;;;;;;6240185;22;20462;-80
2021/05/28 08:20:14;;;;;;;0.25;0.25;;;18.40;75.20;;;;;;6240723;22;20008;-81
2021/05/28 08:22:40;;;;;;;0.20;0.20;;;18.40;76.40;;;;;;6240360;22;20418;-79
2021/05/28 08:25:07;;;;;;;0.52;0.20;;;18.40;76.70;;;;;;6240903;23;19992;-78
2021/05/28 08:27:32;;;;;;;0.20;0.20;;;18.40;76.00;;;;;;6240275;22;20386;-79
2021/05/28 08:29:58;;;;;;;1.88;0.32;;;18.30;76.60;;;;;;6240285;22;20004;-80
2021/05/28 08:32:24;;;;;;;0.30;0.30;;;18.20;77.20;;;;;;6239952;22;20154;-79
2021/05/28 08:34:50;;;;;;;1.02;0.30;;;18.30;77.50;;;;;;6213816;23;20335;-80
2021/05/28 08:37:16;;;;;;;0.90;0.35;;;18.40;76.60;;;;;;6239894;23;20011;-79
2021/05/28 08:39:42;;;;;;;0.28;0.20;;;18.40;74.30;;;;;;6241024;23;19996;-78
2021/05/28 08:42:10;;;;;;;0.30;0.30;;;18.50;74.20;;;;;;6239632;22;20000;-81
2021/05/28 08:44:36;;;;;;;0.17;0.17;;;18.50;72.50;;;;;;6240420;22;20381;-80
2021/05/28 08:47:03;;;;;;;0.20;0.20;;;18.40;73.40;;;;;;6240020;22;20007;-79
2021/05/28 08:49:29;;;;;;;1.35;0.77;;;18.50;75.00;;;;;;6213800;22;20327;-80
2021/05/28 08:51:57;;;;;;;0.13;0.13;;;18.50;75.10;;;;;;6239964;23;20012;-80
2021/05/28 08:54:23;;;;;;;0.30;0.30;;;18.60;74.00;;;;;;6213105;22;20008;-81
2021/05/28 08:56:50;;;;;;;1.80;0.57;;;18.60;74.20;;;;;;6240077;23;20313;-83
2021/05/28 08:59:17;;;;;;;0.10;0.10;;;18.50;76.30;;;;;;6243415;22;20031;-79
2021/05/28 09:01:42;;;;;;;0.80;0.73;;;18.40;74.70;;;;;;6242894;22;20065;-79
2021/05/28 09:04:11;;;;;;;0.30;0.30;;;18.50;75.90;;;;;;6216698;23;20086;-81
2021/05/28 09:06:47;;;;;;;0.20;0.20;;;18.50;74.10;;;;;;6243845;22;20079;-80
2021/05/28 09:09:14;;;;;;;1.75;0.50;;;18.40;76.00;;;;;;6243972;23;20019;-79
2021/05/28 09:11:51;;;;;;;0.75;0.38;;;18.40;77.20;;;;;;6243095;22;20015;-80
2021/05/28 09:14:30;;;;;;;0.20;0.20;;;18.40;78.00;;;;;;6243320;22;20075;-80
2021/05/28 09:16:56;;;;;;;0.30;0.30;;;18.50;78.20;;;;;;6243194;23;20030;-81
2021/05/28 09:19:24;;;;;;;9.30;0.30;;;18.50;80.00;;;;;;6243290;22;20439;-82
2021/05/28 09:21:57;;;;;;;0.50;0.50;;;18.40;83.60;;;;;;6242891;22;20490;-80
2021/05/28 09:24:35;;;;;;;0.30;0.30;;;18.40;86.70;;;;;;6243825;22;20578;-80
2021/05/28 09:27:24;;;;;;;0.20;0.20;;;18.50;85.30;;;;;;6243044;22;20364;-81
2021/05/28 09:30:13;;;;;;;0.70;0.70;;;18.40;85.90;;;;;;6243389;23;19996;-80
2021/05/28 09:32:45;;;;;;;0.10;0.10;;;18.40;87.60;;;;;;6216182;23;20008;-79
2021/05/28 09:35:12;;;;;;;0.55;0.55;;;18.40;90.50;;;;;;6243638;22;19997;-80
2021/05/28 09:37:47;;;;;;;0.82;0.82;;;18.60;89.10;;;;;;6242805;22;20004;-80
2021/05/28 09:40:19;;;;;;;0.35;0.35;;;18.70;86.90;;;;;;6244050;23;20084;-78
2021/05/28 09:42:54;;;;;;;0.40;0.30;;;18.70;90.20;;;;;;6215862;23;20011;-81
2021/05/28 09:45:26;;;;;;;0.40;0.30;;;18.70;86.40;;;;;;6243219;22;19996;-80
2021/05/28 09:47:51;;;;;;;0.20;0.20;;;18.60;87.20;;;;;;6242672;22;20004;-80
2021/05/28 09:50:18;;;;;;;1.20;0.70;;;18.60;90.00;;;;;;6243690;22;20003;-80
2021/05/28 09:52:44;;;;;;;0.20;0.20;;;18.70;89.40;;;;;;6242496;23;20179;-79
2021/05/28 09:55:12;;;;;;;0.20;0.10;;;18.60;90.40;;;;;;6243534;22;20007;-79
2021/05/28 09:57:41;;;;;;;0.20;0.20;;;18.80;92.00;;;;;;6242799;23;20004;-81
2021/05/28 10:00:37;;;;;;;0.40;0.40;;;18.80;90.90;;;;;;6216262;23;20327;-81
2021/05/28 10:03:13;;;;;;;0.52;0.22;;;18.90;90.40;;;;;;6242877;22;20003;-80
2021/05/28 10:05:42;;;;;;;0.17;0.17;;;18.90;91.10;;;;;;6243582;23;20431;-80
2021/05/28 10:08:12;;;;;;;0.10;0.10;;;19.00;90.60;;;;;;6242753;22;20079;-79
2021/05/28 10:10:40;;;;;;;0.20;0.20;;;19.00;91.00;;;;;;6243233;23;20000;-79
2021/05/28 10:13:11;;;;;;;0.20;0.20;;;19.10;85.60;;;;;;6242347;22;20087;-79
2021/05/28 10:15:51;;;;;;;0.32;0.32;;;19.10;85.60;;;;;;6216293;23;20361;-80
2021/05/28 10:18:19;;;;;;;0.75;0.35;;;19.20;82.90;;;;;;6243150;22;20146;-79
2021/05/28 10:20:47;;;;;;;0.50;0.50;;;19.30;80.90;;;;;;6245244;22;20004;-79
2021/05/28 10:23:15;;;;;;;0.30;0.20;;;19.40;81.90;;;;;;6244567;23;20079;-80
2021/05/28 10:25:41;;;;;;;0.10;0.10;;;19.50;81.10;;;;;;6245549;22;20061;-80
2021/05/28 10:28:14;;;;;;;0.10;0.10;;;19.60;82.50;;;;;;6244700;23;20000;-81
2021/05/28 10:30:42;;;;;;;0.47;0.40;;;19.60;73.10;;;;;;6245228;22;20068;-79
2021/05/28 10:33:25;;;;;;;0.63;0.50;;;19.50;76.30;;;;;;6245024;22;20008;-80
2021/05/28 10:36:11;;;;;;;0.50;0.50;;;19.40;77.10;;;;;;6218184;22;20009;-80
2021/05/28 10:38:51;;;;;;;0.20;0.20;;;19.50;74.70;;;;;;6244351;22;20000;-82
2021/05/28 10:41:20;;;;;;;0.15;0.15;;;19.50;77.50;;;;;;6245424;22;20004;-80
2021/05/28 10:43:48;;;;;;;0.38;0.30;;;19.60;75.80;;;;;;6244627;23;20000;-80
2021/05/28 10:46:14;;;;;;;26.15;0.65;;;19.70;77.80;;;;;;6218149;22;20008;-79
2021/05/28 10:48:41;;;;;;;2.27;1.23;;;19.90;76.90;;;;;;6217701;23;20007;-79
2021/05/28 10:51:14;;;;;;;0.20;0.20;;;19.90;74.10;;;;;;6218230;23;20257;-80
2021/05/28 10:54:00;;;;;;;0.80;0.50;;;19.80;70.40;;;;;;6217736;23;20116;-80
2021/05/28 10:56:28;;;;;;;0.32;0.30;;;20.00;71.90;;;;;;6217618;22;20332;-79
2021/05/28 10:58:59;;;;;;;0.70;0.57;;;20.10;77.50;;;;;;6241295;22;20030;-79
2021/05/28 11:01:43;;;;;;;1.13;0.85;;;20.10;78.80;;;;;;6216222;23;20008;-79
2021/05/28 11:04:15;;;;;;;0.10;0.10;;;20.10;72.40;;;;;;6243350;22;20011;-82
2021/05/28 11:06:56;;;;;;;0.10;0.10;;;20.10;77.20;;;;;;6244571;22;20224;-82
2021/05/28 11:09:41;;;;;;;0.22;0.22;;;20.20;74.60;;;;;;6218017;23;20065;-79
2021/05/28 11:12:08;;;;;;;0.10;0.10;;;20.30;71.90;;;;;;6244754;22;20494;-83
2021/05/28 11:14:36;;;;;;;8.45;0.28;;;20.20;77.60;;;;;;6244198;22;20012;-80
2021/05/28 11:17:02;;;;;;;0.17;0.17;;;20.20;76.00;;;;;;6217534;23;20035;-79
2021/05/28 11:19:40;;;;;;;0.13;0.13;;;20.30;72.10;;;;;;6218201;23;20050;-79
2021/05/28 11:22:14;;;;;;;0.43;0.40;;;20.40;74.70;;;;;;6244061;23;20000;-78
2021/05/28 11:24:46;;;;;;;0.20;0.20;;;20.40;72.70;;;;;;6244490;22;19996;-79
2021/05/28 11:27:25;;;;;;;0.25;0.25;;;20.40;71.10;;;;;;6240242;22;20008;-80
2021/05/28 11:29:55;;;;;;;0.30;0.30;;;20.50;72.20;;;;;;6213842;23;20138;-78
2021/05/28 11:32:43;;;;;;;0.10;0.10;;;20.60;70.80;;;;;;6213725;23;20020;-79
2021/05/28 11:35:16;;;;;;;6.63;0.90;;;20.60;75.40;;;;;;6241652;22;20000;-79
2021/05/28 11:37:51;;;;;;;0.10;0.10;;;20.70;73.60;;;;;;6240642;23;20018;-78
2021/05/28 11:40:28;;;;;;;0.10;0.10;;;20.80;72.50;;;;;;6241708;22;20347;-77
2021/05/28 11:43:06;;;;;;;0.30;0.15;;;20.80;74.80;;;;;;6240427;22;20004;-79
2021/05/28 11:45:32;;;;;;;0.57;0.40;;;20.80;76.00;;;;;;6240616;23;20087;-79
2021/05/28 11:47:58;;;;;;;0.65;0.40;;;20.80;69.70;;;;;;6241038;23;20340;-77
2021/05/28 11:50:24;;;;;;;1.98;0.73;;;20.70;77.20;;;;;;6240986;22;20000;-78
2021/05/28 11:53:01;;;;;;;1.45;0.50;;;20.70;76.80;;;;;;6240418;22;20492;-78
2021/05/28 11:55:29;;;;;;;0.10;0.10;;;20.80;75.90;;;;;;6241563;22;20035;-81
2021/05/28 11:58:00;;;;;;;3.60;0.88;;;20.80;81.10;;;;;;6240140;23;20008;-78
2021/05/28 12:00:26;;;;;;;1.00;0.38;;;21.00;79.00;;;;;;6213718;23;20111;-79
2021/05/28 12:02:56;;;;;;;1.15;1.05;;;21.60;78.40;;;;;;6239974;22;20063;-79
2021/05/28 12:05:29;;;;;;;1.13;0.63;;;24.40;68.80;;;;;;6240485;22;20497;-77
2021/05/28 12:08:11;;;;;;;0.20;0.20;;;26.90;57.20;;;;;;6240419;23;20031;-78
2021/05/28 12:10:47;;;;;;;0.30;0.30;;;28.40;53.50;;;;;;6214374;22;20320;-77
2021/05/28 12:13:24;;;;;;;0.52;0.52;;;30.80;53.90;;;;;;6241158;23;20465;-76
2021/05/28 12:15:55;;;;;;;0.50;0.50;;;30.20;44.10;;;;;;6241730;22;20092;-82
2021/05/28 12:18:34;;;;;;;0.30;0.30;;;28.80;50.30;;;;;;6240507;22;20443;-79
2021/05/28 12:21:05;;;;;;;0.85;0.65;;;29.70;50.20;;;;;;6240975;23;20004;-79
2021/05/28 12:23:36;;;;;;;0.30;0.30;;;30.70;49.00;;;;;;6213370;23;20004;-79
2021/05/28 12:26:03;;;;;;;0.30;0.30;;;31.30;43.70;;;;;;6240523;23;20054;-79
2021/05/28 12:28:34;;;;;;;0.52;0.52;;;32.40;40.70;;;;;;6240399;22;20008;-81
2021/05/28 12:31:07;;;;;;;0.77;0.45;;;32.60;42.20;;;;;;6213600;22;20095;-80
2021/05/28 12:33:35;;;;;;;1.13;0.77;;;32.10;42.30;;;;;;6240299;22;20012;-80
2021/05/28 12:36:09;;;;;;;0.40;0.40;;;31.80;44.90;;;;;;6240740;22;20387;-82
2021/05/28 12:38:45;;;;;;;0.98;0.88;;;32.50;45.20;;;;;;6213108;23;20012;-84
2021/05/28 12:41:36;;;;;;;0.22;0.22;;;32.20;41.20;;;;;;6240660;23;20000;-76
2021/05/28 12:44:03;;;;;;;0.40;0.40;;;35.40;39.40;;;;;;6242276;22;20015;-77
2021/05/28 12:46:34;;;;;;;3.67;0.73;;;37.80;37.80;;;;;;6244089;22;20004;-82
2021/05/28 12:49:09;;;;;;;0.35;0.35;;;36.40;36.80;;;;;;6243686;22;20000;-82
2021/05/28 12:51:36;;;;;;;0.82;0.68;;;38.50;37.00;;;;;;6243595;22;20011;-79
2021/05/28 12:54:22;;;;;;;0.70;0.70;;;37.50;37.60;;;;;;6243796;23;20004;-77
2021/05/28 12:56:57;;;;;;;0.88;0.82;;;36.10;36.80;;;;;;6243170;22;20003;-80